sensor_id;sensor_type;location;lat;lon;timestamp;temperature;humidity
48836;DHT22;62581;47.342;7.908;2023-03-19T00:00:00;10.90;99.90
48836;DHT22;62581;47.342;7.908;2023-03-19T00:02:27;10.90;99.90
48836;DHT22;62581;47.342;7.908;2023-03-19T00:04:54;10.90;99.90
48836;DHT22;62581;47.342;7.908;2023-03-19T00:07:21;10.90;99.90
48836;DHT22;62581;47.342;7.908;2023-03-19T00:09:47;10.90;99.90
48836;DHT22;62581;47.342;7.908;2023-03-19T00:12:14;10.90;99.90
48836;DHT22;62581;47.342;7.908;2023-03-19T00:14:43;10.90;99.90
48836;DHT22;62581;47.342;7.908;2023-03-19T00:17:10;10.90;99.90
48836;DHT22;62581;47.342;7.908;2023-03-19T00:19:36;10.90;99.90
48836;DHT22;62581;47.342;7.908;2023-03-19T00:22:03;10.90;99.90
48836;DHT22;62581;47.342;7.908;2023-03-19T00:24:30;10.80;99.90
48836;DHT22;62581;47.342;7.908;2023-03-19T00:26:57;10.90;99.90
48836;DHT22;62581;47.342;7.908;2023-03-19T00:29:24;10.90;99.90
48836;DHT22;62581;47.342;7.908;2023-03-19T00:31:53;10.90;99.90
48836;DHT22;62581;47.342;7.908;2023-03-19T00:34:19;10.90;99.90
48836;DHT22;62581;47.342;7.908;2023-03-19T00:36:47;10.90;99.90
48836;DHT22;62581;47.342;7.908;2023-03-19T00:39:14;10.80;99.90
48836;DHT22;62581;47.342;7.908;2023-03-19T00:41:41;10.80;99.90
48836;DHT22;62581;47.342;7.908;2023-03-19T00:44:14;10.80;99.90
48836;DHT22;62581;47.342;7.908;2023-03-19T00:46:41;10.80;99.90
48836;DHT22;62581;47.342;7.908;2023-03-19T00:49:10;10.90;99.90
48836;DHT22;62581;47.342;7.908;2023-03-19T00:51:36;10.90;99.90
48836;DHT22;62581;47.342;7.908;2023-03-19T00:54:08;10.80;99.90
48836;DHT22;62581;47.342;7.908;2023-03-19T00:56:35;10.70;99.90
48836;DHT22;62581;47.342;7.908;2023-03-19T00:59:02;10.70;99.90
48836;DHT22;62581;47.342;7.908;2023-03-19T01:01:29;10.80;99.90
48836;DHT22;62581;47.342;7.908;2023-03-19T01:03:56;10.80;99.90
48836;DHT22;62581;47.342;7.908;2023-03-19T01:06:25;11.00;99.90
48836;DHT22;62581;47.342;7.908;2023-03-19T01:08:52;11.00;99.90
48836;DHT22;62581;47.342;7.908;2023-03-19T01:11:19;11.00;99.90
48836;DHT22;62581;47.342;7.908;2023-03-19T01:13:46;11.00;99.90
48836;DHT22;62581;47.342;7.908;2023-03-19T01:16:13;10.90;99.90
48836;DHT22;62581;47.342;7.908;2023-03-19T01:18:39;11.00;99.90
48836;DHT22;62581;47.342;7.908;2023-03-19T01:21:06;10.90;99.90
48836;DHT22;62581;47.342;7.908;2023-03-19T01:23:35;10.90;99.90
48836;DHT22;62581;47.342;7.908;2023-03-19T01:26:02;10.90;99.90
48836;DHT22;62581;47.342;7.908;2023-03-19T01:28:28;10.90;99.90
48836;DHT22;62581;47.342;7.908;2023-03-19T01:30:57;10.80;99.90
48836;DHT22;62581;47.342;7.908;2023-03-19T01:33:24;10.90;99.90
48836;DHT22;62581;47.342;7.908;2023-03-19T01:35:51;10.70;99.90
48836;DHT22;62581;47.342;7.908;2023-03-19T01:38:17;10.70;99.90
48836;DHT22;62581;47.342;7.908;2023-03-19T01:40:46;10.80;99.90
48836;DHT22;62581;47.342;7.908;2023-03-19T01:43:16;10.80;99.90
48836;DHT22;62581;47.342;7.908;2023-03-19T01:45:44;10.90;99.90
48836;DHT22;62581;47.342;7.908;2023-03-19T01:48:16;10.90;99.90
48836;DHT22;62581;47.342;7.908;2023-03-19T01:50:45;10.90;99.90
48836;DHT22;62581;47.342;7.908;2023-03-19T01:53:15;10.80;99.90
48836;DHT22;62581;47.342;7.908;2023-03-19T01:55:43;10.90;99.90
48836;DHT22;62581;47.342;7.908;2023-03-19T01:58:12;10.80;99.90
48836;DHT22;62581;47.342;7.908;2023-03-19T02:00:39;10.80;99.90
48836;DHT22;62581;47.342;7.908;2023-03-19T02:03:06;10.80;99.90
48836;DHT22;62581;47.342;7.908;2023-03-19T02:05:33;10.90;99.90
48836;DHT22;62581;47.342;7.908;2023-03-19T02:08:01;10.80;99.90
48836;DHT22;62581;47.342;7.908;2023-03-19T02:10:28;10.90;99.90
48836;DHT22;62581;47.342;7.908;2023-03-19T02:12:56;11.00;99.90
48836;DHT22;62581;47.342;7.908;2023-03-19T02:15:24;10.90;99.90
48836;DHT22;62581;47.342;7.908;2023-03-19T02:17:51;10.90;99.90
48836;DHT22;62581;47.342;7.908;2023-03-19T02:20:20;10.90;99.90
48836;DHT22;62581;47.342;7.908;2023-03-19T02:22:50;10.80;99.90
48836;DHT22;62581;47.342;7.908;2023-03-19T02:25:19;10.80;99.90
48836;DHT22;62581;47.342;7.908;2023-03-19T02:27:49;10.70;99.90
48836;DHT22;62581;47.342;7.908;2023-03-19T02:30:17;10.70;99.90
48836;DHT22;62581;47.342;7.908;2023-03-19T02:32:44;10.70;99.90
48836;DHT22;62581;47.342;7.908;2023-03-19T02:35:11;10.70;99.90
48836;DHT22;62581;47.342;7.908;2023-03-19T02:37:38;10.70;99.90
48836;DHT22;62581;47.342;7.908;2023-03-19T02:40:06;10.70;99.90
48836;DHT22;62581;47.342;7.908;2023-03-19T02:42:34;10.70;99.90
48836;DHT22;62581;47.342;7.908;2023-03-19T02:45:03;10.60;99.90
48836;DHT22;62581;47.342;7.908;2023-03-19T02:47:30;10.60;99.90
48836;DHT22;62581;47.342;7.908;2023-03-19T02:49:56;10.50;99.90
48836;DHT22;62581;47.342;7.908;2023-03-19T02:52:23;10.60;99.90
48836;DHT22;62581;47.342;7.908;2023-03-19T02:54:50;10.60;99.90
48836;DHT22;62581;47.342;7.908;2023-03-19T02:57:17;10.50;99.90
48836;DHT22;62581;47.342;7.908;2023-03-19T02:59:44;10.60;99.90
48836;DHT22;62581;47.342;7.908;2023-03-19T03:02:12;10.60;99.90
48836;DHT22;62581;47.342;7.908;2023-03-19T03:04:39;10.50;99.90
48836;DHT22;62581;47.342;7.908;2023-03-19T03:07:06;10.50;99.90
48836;DHT22;62581;47.342;7.908;2023-03-19T03:09:33;10.40;99.90
48836;DHT22;62581;47.342;7.908;2023-03-19T03:12:00;10.40;99.90
48836;DHT22;62581;47.342;7.908;2023-03-19T03:14:26;10.40;99.90
48836;DHT22;62581;47.342;7.908;2023-03-19T03:16:54;10.40;99.90
48836;DHT22;62581;47.342;7.908;2023-03-19T03:19:23;10.30;99.90
48836;DHT22;62581;47.342;7.908;2023-03-19T03:21:50;10.30;99.90
48836;DHT22;62581;47.342;7.908;2023-03-19T03:24:17;10.30;99.90
48836;DHT22;62581;47.342;7.908;2023-03-19T03:26:43;10.40;99.90
48836;DHT22;62581;47.342;7.908;2023-03-19T03:29:10;10.40;99.90
48836;DHT22;62581;47.342;7.908;2023-03-19T03:31:37;10.50;99.90
48836;DHT22;62581;47.342;7.908;2023-03-19T03:34:04;10.60;99.90
48836;DHT22;62581;47.342;7.908;2023-03-19T03:36:32;10.60;99.90
48836;DHT22;62581;47.342;7.908;2023-03-19T03:38:59;10.60;99.90
48836;DHT22;62581;47.342;7.908;2023-03-19T03:41:26;10.60;99.90
48836;DHT22;62581;47.342;7.908;2023-03-19T03:43:53;10.50;99.90
48836;DHT22;62581;47.342;7.908;2023-03-19T03:46:20;10.40;99.90
48836;DHT22;62581;47.342;7.908;2023-03-19T03:48:47;10.40;99.90
48836;DHT22;62581;47.342;7.908;2023-03-19T03:51:15;10.40;99.90
48836;DHT22;62581;47.342;7.908;2023-03-19T03:53:44;10.30;99.90
48836;DHT22;62581;47.342;7.908;2023-03-19T03:56:10;10.30;99.90
48836;DHT22;62581;47.342;7.908;2023-03-19T03:58:37;10.30;99.90
48836;DHT22;62581;47.342;7.908;2023-03-19T04:01:04;10.30;99.90
48836;DHT22;62581;47.342;7.908;2023-03-19T04:03:32;10.30;99.90
48836;DHT22;62581;47.342;7.908;2023-03-19T04:05:59;10.30;99.90
48836;DHT22;62581;47.342;7.908;2023-03-19T04:08:25;10.20;99.90
48836;DHT22;62581;47.342;7.908;2023-03-19T04:10:53;10.20;99.90
48836;DHT22;62581;47.342;7.908;2023-03-19T04:13:20;10.20;99.90
48836;DHT22;62581;47.342;7.908;2023-03-19T04:15:47;10.20;99.90
48836;DHT22;62581;47.342;7.908;2023-03-19T04:18:14;10.10;99.90
48836;DHT22;62581;47.342;7.908;2023-03-19T04:20:41;10.10;99.90
48836;DHT22;62581;47.342;7.908;2023-03-19T04:23:08;10.10;99.90
48836;DHT22;62581;47.342;7.908;2023-03-19T04:25:37;10.10;99.90
48836;DHT22;62581;47.342;7.908;2023-03-19T04:28:06;10.10;99.90
48836;DHT22;62581;47.342;7.908;2023-03-19T04:30:33;10.10;99.90
48836;DHT22;62581;47.342;7.908;2023-03-19T04:33:00;10.10;99.90
48836;DHT22;62581;47.342;7.908;2023-03-19T04:35:27;10.10;99.90
48836;DHT22;62581;47.342;7.908;2023-03-19T04:37:54;10.10;99.90
48836;DHT22;62581;47.342;7.908;2023-03-19T04:40:21;10.10;99.90
48836;DHT22;62581;47.342;7.908;2023-03-19T04:42:48;10.20;99.90
48836;DHT22;62581;47.342;7.908;2023-03-19T04:45:16;10.20;99.90
48836;DHT22;62581;47.342;7.908;2023-03-19T04:47:47;10.20;99.90
48836;DHT22;62581;47.342;7.908;2023-03-19T04:50:14;10.10;99.90
48836;DHT22;62581;47.342;7.908;2023-03-19T04:52:41;10.10;99.90
48836;DHT22;62581;47.342;7.908;2023-03-19T04:55:08;10.10;99.90
48836;DHT22;62581;47.342;7.908;2023-03-19T04:57:35;10.10;99.90
48836;DHT22;62581;47.342;7.908;2023-03-19T05:00:02;10.10;99.90
48836;DHT22;62581;47.342;7.908;2023-03-19T05:02:32;10.00;99.90
48836;DHT22;62581;47.342;7.908;2023-03-19T05:04:59;10.00;99.90
48836;DHT22;62581;47.342;7.908;2023-03-19T05:07:26;10.00;99.90
48836;DHT22;62581;47.342;7.908;2023-03-19T05:09:53;10.00;99.90
48836;DHT22;62581;47.342;7.908;2023-03-19T05:12:20;10.00;99.90
48836;DHT22;62581;47.342;7.908;2023-03-19T05:14:47;10.00;99.90
48836;DHT22;62581;47.342;7.908;2023-03-19T05:17:13;10.00;99.90
48836;DHT22;62581;47.342;7.908;2023-03-19T05:19:42;10.00;99.90
48836;DHT22;62581;47.342;7.908;2023-03-19T05:22:09;10.00;99.90
48836;DHT22;62581;47.342;7.908;2023-03-19T05:24:36;10.00;99.90
48836;DHT22;62581;47.342;7.908;2023-03-19T05:27:03;10.00;99.90
48836;DHT22;62581;47.342;7.908;2023-03-19T05:29:29;10.00;99.90
48836;DHT22;62581;47.342;7.908;2023-03-19T05:31:56;10.00;99.90
48836;DHT22;62581;47.342;7.908;2023-03-19T05:34:24;10.00;99.90
48836;DHT22;62581;47.342;7.908;2023-03-19T05:36:52;10.00;99.90
48836;DHT22;62581;47.342;7.908;2023-03-19T05:39:19;10.00;99.90
48836;DHT22;62581;47.342;7.908;2023-03-19T05:41:46;9.90;99.90
48836;DHT22;62581;47.342;7.908;2023-03-19T05:44:13;9.90;99.90
48836;DHT22;62581;47.342;7.908;2023-03-19T05:46:40;9.90;99.90
48836;DHT22;62581;47.342;7.908;2023-03-19T05:49:07;9.90;99.90
48836;DHT22;62581;47.342;7.908;2023-03-19T05:51:34;9.80;99.90
48836;DHT22;62581;47.342;7.908;2023-03-19T05:54:02;9.90;99.90
48836;DHT22;62581;47.342;7.908;2023-03-19T05:56:29;9.80;99.90
48836;DHT22;62581;47.342;7.908;2023-03-19T05:58:56;9.80;99.90
48836;DHT22;62581;47.342;7.908;2023-03-19T06:01:23;9.80;99.90
48836;DHT22;62581;47.342;7.908;2023-03-19T06:03:50;9.80;99.90
48836;DHT22;62581;47.342;7.908;2023-03-19T06:06:17;9.80;99.90
48836;DHT22;62581;47.342;7.908;2023-03-19T06:08:44;9.80;99.90
48836;DHT22;62581;47.342;7.908;2023-03-19T06:11:12;9.80;99.90
48836;DHT22;62581;47.342;7.908;2023-03-19T06:13:39;9.80;99.90
48836;DHT22;62581;47.342;7.908;2023-03-19T06:16:07;9.80;99.90
48836;DHT22;62581;47.342;7.908;2023-03-19T06:18:34;9.80;99.90
48836;DHT22;62581;47.342;7.908;2023-03-19T06:21:03;9.90;99.90
48836;DHT22;62581;47.342;7.908;2023-03-19T06:23:30;9.90;99.90
48836;DHT22;62581;47.342;7.908;2023-03-19T06:25:57;10.00;99.90
48836;DHT22;62581;47.342;7.908;2023-03-19T06:28:25;10.00;99.90
48836;DHT22;62581;47.342;7.908;2023-03-19T06:30:52;10.00;99.90
48836;DHT22;62581;47.342;7.908;2023-03-19T06:33:19;10.00;99.90
48836;DHT22;62581;47.342;7.908;2023-03-19T06:35:47;9.90;99.90
48836;DHT22;62581;47.342;7.908;2023-03-19T06:38:13;10.00;99.90
48836;DHT22;62581;47.342;7.908;2023-03-19T06:40:40;10.00;99.90
48836;DHT22;62581;47.342;7.908;2023-03-19T06:43:07;10.00;99.90
48836;DHT22;62581;47.342;7.908;2023-03-19T06:45:35;10.10;99.90
48836;DHT22;62581;47.342;7.908;2023-03-19T06:48:02;10.20;99.90
48836;DHT22;62581;47.342;7.908;2023-03-19T06:50:30;10.20;99.90
48836;DHT22;62581;47.342;7.908;2023-03-19T06:52:57;10.30;99.90
48836;DHT22;62581;47.342;7.908;2023-03-19T06:55:24;10.30;99.90
48836;DHT22;62581;47.342;7.908;2023-03-19T06:57:51;10.40;99.90
48836;DHT22;62581;47.342;7.908;2023-03-19T07:00:18;10.50;99.90
48836;DHT22;62581;47.342;7.908;2023-03-19T07:02:46;10.60;99.90
48836;DHT22;62581;47.342;7.908;2023-03-19T07:05:13;10.70;99.90
48836;DHT22;62581;47.342;7.908;2023-03-19T07:07:40;10.70;99.90
48836;DHT22;62581;47.342;7.908;2023-03-19T07:10:07;10.80;99.90
48836;DHT22;62581;47.342;7.908;2023-03-19T07:12:34;10.80;99.90
48836;DHT22;62581;47.342;7.908;2023-03-19T07:15:01;10.90;99.90
48836;DHT22;62581;47.342;7.908;2023-03-19T07:17:29;10.90;99.90
48836;DHT22;62581;47.342;7.908;2023-03-19T07:19:57;10.90;99.90
48836;DHT22;62581;47.342;7.908;2023-03-19T07:22:24;10.80;99.90
48836;DHT22;62581;47.342;7.908;2023-03-19T07:24:51;10.80;99.90
48836;DHT22;62581;47.342;7.908;2023-03-19T07:27:18;10.80;99.90
48836;DHT22;62581;47.342;7.908;2023-03-19T07:29:45;10.80;99.90
48836;DHT22;62581;47.342;7.908;2023-03-19T07:32:12;10.80;99.90
48836;DHT22;62581;47.342;7.908;2023-03-19T07:34:39;10.80;99.90
48836;DHT22;62581;47.342;7.908;2023-03-19T07:37:07;10.90;99.90
48836;DHT22;62581;47.342;7.908;2023-03-19T07:39:34;10.90;99.90
48836;DHT22;62581;47.342;7.908;2023-03-19T07:42:01;10.90;99.90
48836;DHT22;62581;47.342;7.908;2023-03-19T07:44:28;10.90;99.90
48836;DHT22;62581;47.342;7.908;2023-03-19T07:46:55;11.00;99.90
48836;DHT22;62581;47.342;7.908;2023-03-19T07:49:21;11.10;99.90
48836;DHT22;62581;47.342;7.908;2023-03-19T07:51:48;11.20;99.90
48836;DHT22;62581;47.342;7.908;2023-03-19T07:54:17;11.40;99.90
48836;DHT22;62581;47.342;7.908;2023-03-19T07:56:43;11.40;99.90
48836;DHT22;62581;47.342;7.908;2023-03-19T07:59:10;11.50;99.90
48836;DHT22;62581;47.342;7.908;2023-03-19T08:01:37;11.60;99.90
48836;DHT22;62581;47.342;7.908;2023-03-19T08:04:04;11.70;99.90
48836;DHT22;62581;47.342;7.908;2023-03-19T08:06:31;11.80;99.90
48836;DHT22;62581;47.342;7.908;2023-03-19T08:08:57;11.90;99.90
48836;DHT22;62581;47.342;7.908;2023-03-19T08:11:26;12.00;99.90
48836;DHT22;62581;47.342;7.908;2023-03-19T08:13:54;12.10;99.90
48836;DHT22;62581;47.342;7.908;2023-03-19T08:16:21;12.20;99.90
48836;DHT22;62581;47.342;7.908;2023-03-19T08:18:47;12.40;99.90
48836;DHT22;62581;47.342;7.908;2023-03-19T08:21:14;12.50;99.90
48836;DHT22;62581;47.342;7.908;2023-03-19T08:23:41;12.50;99.90
48836;DHT22;62581;47.342;7.908;2023-03-19T08:26:08;12.60;99.90
48836;DHT22;62581;47.342;7.908;2023-03-19T08:28:36;12.60;99.90
48836;DHT22;62581;47.342;7.908;2023-03-19T08:31:07;12.60;99.90
48836;DHT22;62581;47.342;7.908;2023-03-19T08:33:33;12.50;99.90
48836;DHT22;62581;47.342;7.908;2023-03-19T08:36:05;12.50;99.90
48836;DHT22;62581;47.342;7.908;2023-03-19T08:38:32;12.60;99.90
48836;DHT22;62581;47.342;7.908;2023-03-19T08:40:59;12.60;99.90
48836;DHT22;62581;47.342;7.908;2023-03-19T08:43:28;12.80;99.90
48836;DHT22;62581;47.342;7.908;2023-03-19T08:45:56;12.90;99.90
48836;DHT22;62581;47.342;7.908;2023-03-19T08:48:23;13.00;99.90
48836;DHT22;62581;47.342;7.908;2023-03-19T08:50:51;13.00;99.90
48836;DHT22;62581;47.342;7.908;2023-03-19T08:53:18;13.10;99.90
48836;DHT22;62581;47.342;7.908;2023-03-19T08:55:49;13.10;99.90
48836;DHT22;62581;47.342;7.908;2023-03-19T08:58:16;13.20;99.90
48836;DHT22;62581;47.342;7.908;2023-03-19T09:00:43;13.30;99.90
48836;DHT22;62581;47.342;7.908;2023-03-19T09:03:12;13.40;99.90
48836;DHT22;62581;47.342;7.908;2023-03-19T09:05:38;13.60;99.90
48836;DHT22;62581;47.342;7.908;2023-03-19T09:08:05;13.60;99.90
48836;DHT22;62581;47.342;7.908;2023-03-19T09:10:33;13.80;99.90
48836;DHT22;62581;47.342;7.908;2023-03-19T09:13:00;13.80;99.90
48836;DHT22;62581;47.342;7.908;2023-03-19T09:15:27;14.00;99.90
48836;DHT22;62581;47.342;7.908;2023-03-19T09:17:54;14.10;99.90
48836;DHT22;62581;47.342;7.908;2023-03-19T09:20:22;14.20;99.90
48836;DHT22;62581;47.342;7.908;2023-03-19T09:22:49;14.30;99.90
48836;DHT22;62581;47.342;7.908;2023-03-19T09:25:16;14.40;99.90
48836;DHT22;62581;47.342;7.908;2023-03-19T09:27:42;14.40;99.90
48836;DHT22;62581;47.342;7.908;2023-03-19T09:30:10;14.60;99.90
48836;DHT22;62581;47.342;7.908;2023-03-19T09:32:37;14.70;99.90
48836;DHT22;62581;47.342;7.908;2023-03-19T09:35:05;14.90;99.90
48836;DHT22;62581;47.342;7.908;2023-03-19T09:37:34;15.10;99.90
48836;DHT22;62581;47.342;7.908;2023-03-19T09:40:00;15.20;99.90
48836;DHT22;62581;47.342;7.908;2023-03-19T09:42:35;15.50;99.90
48836;DHT22;62581;47.342;7.908;2023-03-19T09:45:03;15.70;99.90
48836;DHT22;62581;47.342;7.908;2023-03-19T09:47:31;15.90;99.90
48836;DHT22;62581;47.342;7.908;2023-03-19T09:49:59;16.00;99.90
48836;DHT22;62581;47.342;7.908;2023-03-19T09:52:29;16.10;99.90
48836;DHT22;62581;47.342;7.908;2023-03-19T09:54:59;16.00;99.90
48836;DHT22;62581;47.342;7.908;2023-03-19T09:57:26;16.00;99.90
48836;DHT22;62581;47.342;7.908;2023-03-19T09:59:54;15.90;99.90
48836;DHT22;62581;47.342;7.908;2023-03-19T10:02:28;15.80;99.90
48836;DHT22;62581;47.342;7.908;2023-03-19T10:05:00;15.60;99.90
48836;DHT22;62581;47.342;7.908;2023-03-19T10:07:34;15.50;99.90
48836;DHT22;62581;47.342;7.908;2023-03-19T10:10:15;15.30;99.90
48836;DHT22;62581;47.342;7.908;2023-03-19T10:12:48;15.10;99.90
48836;DHT22;62581;47.342;7.908;2023-03-19T10:15:20;15.00;99.90
48836;DHT22;62581;47.342;7.908;2023-03-19T10:17:57;14.90;99.90
48836;DHT22;62581;47.342;7.908;2023-03-19T10:20:29;14.90;99.90
48836;DHT22;62581;47.342;7.908;2023-03-19T10:22:59;14.90;99.90
48836;DHT22;62581;47.342;7.908;2023-03-19T10:25:30;15.00;99.90
48836;DHT22;62581;47.342;7.908;2023-03-19T10:27:59;15.00;99.90
48836;DHT22;62581;47.342;7.908;2023-03-19T10:30:27;15.00;99.90
48836;DHT22;62581;47.342;7.908;2023-03-19T10:32:58;14.90;99.90
48836;DHT22;62581;47.342;7.908;2023-03-19T10:35:31;15.00;99.90
48836;DHT22;62581;47.342;7.908;2023-03-19T10:38:08;15.00;99.90
48836;DHT22;62581;47.342;7.908;2023-03-19T10:40:41;15.20;99.90
48836;DHT22;62581;47.342;7.908;2023-03-19T10:43:12;15.30;99.90
48836;DHT22;62581;47.342;7.908;2023-03-19T10:45:42;15.50;99.90
48836;DHT22;62581;47.342;7.908;2023-03-19T10:48:11;15.50;99.90
48836;DHT22;62581;47.342;7.908;2023-03-19T10:50:41;15.30;99.90
48836;DHT22;62581;47.342;7.908;2023-03-19T10:53:20;15.20;99.90
48836;DHT22;62581;47.342;7.908;2023-03-19T10:55:52;14.90;99.90
48836;DHT22;62581;47.342;7.908;2023-03-19T10:58:20;14.80;99.90
48836;DHT22;62581;47.342;7.908;2023-03-19T11:00:49;14.90;99.90
48836;DHT22;62581;47.342;7.908;2023-03-19T11:03:26;15.00;99.90
48836;DHT22;62581;47.342;7.908;2023-03-19T11:06:02;15.00;99.90
48836;DHT22;62581;47.342;7.908;2023-03-19T11:08:28;15.00;99.90
48836;DHT22;62581;47.342;7.908;2023-03-19T11:10:57;15.10;99.90
48836;DHT22;62581;47.342;7.908;2023-03-19T11:13:24;14.70;99.90
48836;DHT22;62581;47.342;7.908;2023-03-19T11:15:51;14.70;99.90
48836;DHT22;62581;47.342;7.908;2023-03-19T11:18:20;14.70;99.90
48836;DHT22;62581;47.342;7.908;2023-03-19T11:20:47;14.80;99.90
48836;DHT22;62581;47.342;7.908;2023-03-19T11:23:15;14.90;99.90
48836;DHT22;62581;47.342;7.908;2023-03-19T11:25:45;15.00;99.90
48836;DHT22;62581;47.342;7.908;2023-03-19T11:28:15;15.00;99.90
48836;DHT22;62581;47.342;7.908;2023-03-19T11:30:44;14.90;99.90
48836;DHT22;62581;47.342;7.908;2023-03-19T11:33:19;14.80;99.90
48836;DHT22;62581;47.342;7.908;2023-03-19T11:35:56;14.90;99.90
48836;DHT22;62581;47.342;7.908;2023-03-19T11:38:27;14.90;99.90
48836;DHT22;62581;47.342;7.908;2023-03-19T11:40:59;14.90;99.90
48836;DHT22;62581;47.342;7.908;2023-03-19T11:43:36;15.00;99.90
48836;DHT22;62581;47.342;7.908;2023-03-19T11:46:07;15.20;99.90
48836;DHT22;62581;47.342;7.908;2023-03-19T11:48:42;15.20;99.90
48836;DHT22;62581;47.342;7.908;2023-03-19T11:51:13;15.40;99.90
48836;DHT22;62581;47.342;7.908;2023-03-19T11:53:47;15.50;99.90
48836;DHT22;62581;47.342;7.908;2023-03-19T11:56:20;15.60;99.90
48836;DHT22;62581;47.342;7.908;2023-03-19T11:58:56;15.70;99.90
48836;DHT22;62581;47.342;7.908;2023-03-19T12:01:31;15.70;99.90
48836;DHT22;62581;47.342;7.908;2023-03-19T12:04:07;15.90;99.90
48836;DHT22;62581;47.342;7.908;2023-03-19T12:06:42;15.70;99.90
48836;DHT22;62581;47.342;7.908;2023-03-19T12:09:12;15.70;99.90
48836;DHT22;62581;47.342;7.908;2023-03-19T12:11:45;15.50;99.90
48836;DHT22;62581;47.342;7.908;2023-03-19T12:14:18;15.60;99.90
48836;DHT22;62581;47.342;7.908;2023-03-19T12:16:53;15.60;99.90
48836;DHT22;62581;47.342;7.908;2023-03-19T12:19:33;15.60;99.90
48836;DHT22;62581;47.342;7.908;2023-03-19T12:22:04;15.50;99.90
48836;DHT22;62581;47.342;7.908;2023-03-19T12:24:36;15.60;99.90
48836;DHT22;62581;47.342;7.908;2023-03-19T12:27:08;15.60;99.90
48836;DHT22;62581;47.342;7.908;2023-03-19T12:29:41;15.50;99.90
48836;DHT22;62581;47.342;7.908;2023-03-19T12:32:12;15.30;99.90
48836;DHT22;62581;47.342;7.908;2023-03-19T12:34:43;15.10;99.90
48836;DHT22;62581;47.342;7.908;2023-03-19T12:37:15;15.00;99.90
48836;DHT22;62581;47.342;7.908;2023-03-19T12:39:44;15.00;99.90
48836;DHT22;62581;47.342;7.908;2023-03-19T12:42:13;15.00;99.90
48836;DHT22;62581;47.342;7.908;2023-03-19T12:44:44;14.90;99.90
48836;DHT22;62581;47.342;7.908;2023-03-19T12:47:13;14.70;99.90
48836;DHT22;62581;47.342;7.908;2023-03-19T12:49:42;14.60;99.90
48836;DHT22;62581;47.342;7.908;2023-03-19T12:52:12;14.50;99.90
48836;DHT22;62581;47.342;7.908;2023-03-19T12:54:40;14.20;99.90
48836;DHT22;62581;47.342;7.908;2023-03-19T12:57:09;14.10;99.90
48836;DHT22;62581;47.342;7.908;2023-03-19T12:59:38;14.10;99.90
48836;DHT22;62581;47.342;7.908;2023-03-19T13:02:10;14.10;99.90
48836;DHT22;62581;47.342;7.908;2023-03-19T13:04:39;14.10;99.90
48836;DHT22;62581;47.342;7.908;2023-03-19T13:07:09;14.10;99.90
48836;DHT22;62581;47.342;7.908;2023-03-19T13:09:39;14.20;99.90
48836;DHT22;62581;47.342;7.908;2023-03-19T13:12:09;14.30;99.90
48836;DHT22;62581;47.342;7.908;2023-03-19T13:14:41;14.30;99.90
48836;DHT22;62581;47.342;7.908;2023-03-19T13:17:13;14.30;99.90
48836;DHT22;62581;47.342;7.908;2023-03-19T13:19:46;14.20;99.90
48836;DHT22;62581;47.342;7.908;2023-03-19T13:22:16;14.10;99.90
48836;DHT22;62581;47.342;7.908;2023-03-19T13:24:44;14.10;99.90
48836;DHT22;62581;47.342;7.908;2023-03-19T13:27:13;14.10;99.90
48836;DHT22;62581;47.342;7.908;2023-03-19T13:29:51;14.00;99.90
48836;DHT22;62581;47.342;7.908;2023-03-19T13:32:23;14.00;99.90
48836;DHT22;62581;47.342;7.908;2023-03-19T13:34:50;13.90;99.90
48836;DHT22;62581;47.342;7.908;2023-03-19T13:37:33;13.90;99.90
48836;DHT22;62581;47.342;7.908;2023-03-19T13:40:02;13.80;99.90
48836;DHT22;62581;47.342;7.908;2023-03-19T13:42:36;13.80;99.90
48836;DHT22;62581;47.342;7.908;2023-03-19T13:47:49;13.80;99.90
48836;DHT22;62581;47.342;7.908;2023-03-19T13:50:25;13.70;99.90
48836;DHT22;62581;47.342;7.908;2023-03-19T13:52:53;13.60;99.90
48836;DHT22;62581;47.342;7.908;2023-03-19T13:55:47;13.60;99.90
48836;DHT22;62581;47.342;7.908;2023-03-19T13:58:17;13.40;99.90
48836;DHT22;62581;47.342;7.908;2023-03-19T14:00:58;13.30;99.90
48836;DHT22;62581;47.342;7.908;2023-03-19T14:03:27;13.30;99.90
48836;DHT22;62581;47.342;7.908;2023-03-19T14:05:55;13.20;99.90
48836;DHT22;62581;47.342;7.908;2023-03-19T14:08:23;13.20;99.90
48836;DHT22;62581;47.342;7.908;2023-03-19T14:10:51;13.20;99.90
48836;DHT22;62581;47.342;7.908;2023-03-19T14:13:20;13.20;99.90
48836;DHT22;62581;47.342;7.908;2023-03-19T14:15:50;13.10;99.90
48836;DHT22;62581;47.342;7.908;2023-03-19T14:18:17;13.00;99.90
48836;DHT22;62581;47.342;7.908;2023-03-19T14:20:52;13.00;99.90
48836;DHT22;62581;47.342;7.908;2023-03-19T14:23:23;13.00;99.90
48836;DHT22;62581;47.342;7.908;2023-03-19T14:25:51;13.10;99.90
48836;DHT22;62581;47.342;7.908;2023-03-19T14:28:20;13.10;99.90
48836;DHT22;62581;47.342;7.908;2023-03-19T14:30:48;13.20;99.90
48836;DHT22;62581;47.342;7.908;2023-03-19T14:33:16;13.30;99.90
48836;DHT22;62581;47.342;7.908;2023-03-19T14:35:44;13.50;99.90
48836;DHT22;62581;47.342;7.908;2023-03-19T14:38:13;13.60;99.90
48836;DHT22;62581;47.342;7.908;2023-03-19T14:40:42;13.80;99.90
48836;DHT22;62581;47.342;7.908;2023-03-19T14:43:13;13.90;99.90
48836;DHT22;62581;47.342;7.908;2023-03-19T14:45:51;13.90;99.90
48836;DHT22;62581;47.342;7.908;2023-03-19T14:48:25;14.00;99.90
48836;DHT22;62581;47.342;7.908;2023-03-19T14:53:45;14.20;99.90
48836;DHT22;62581;47.342;7.908;2023-03-19T14:56:13;14.10;99.90
48836;DHT22;62581;47.342;7.908;2023-03-19T14:58:47;14.00;99.90
48836;DHT22;62581;47.342;7.908;2023-03-19T15:01:14;13.90;99.90
48836;DHT22;62581;47.342;7.908;2023-03-19T15:03:42;13.70;99.90
48836;DHT22;62581;47.342;7.908;2023-03-19T15:06:09;13.60;99.90
48836;DHT22;62581;47.342;7.908;2023-03-19T15:08:38;13.50;99.90
48836;DHT22;62581;47.342;7.908;2023-03-19T15:11:10;13.40;99.90
48836;DHT22;62581;47.342;7.908;2023-03-19T15:13:48;13.40;99.90
48836;DHT22;62581;47.342;7.908;2023-03-19T15:16:25;13.70;99.90
48836;DHT22;62581;47.342;7.908;2023-03-19T15:18:53;14.10;99.90
48836;DHT22;62581;47.342;7.908;2023-03-19T15:21:20;15.60;99.90
48836;DHT22;62581;47.342;7.908;2023-03-19T15:23:47;18.10;99.90
48836;DHT22;62581;47.342;7.908;2023-03-19T15:26:15;19.10;99.90
48836;DHT22;62581;47.342;7.908;2023-03-19T15:28:54;18.50;99.90
48836;DHT22;62581;47.342;7.908;2023-03-19T15:31:22;17.90;99.90
48836;DHT22;62581;47.342;7.908;2023-03-19T15:33:49;17.30;99.90
48836;DHT22;62581;47.342;7.908;2023-03-19T15:36:17;16.90;99.90
48836;DHT22;62581;47.342;7.908;2023-03-19T15:38:45;16.40;99.90
48836;DHT22;62581;47.342;7.908;2023-03-19T15:41:15;15.90;99.90
48836;DHT22;62581;47.342;7.908;2023-03-19T15:43:43;15.50;99.90
48836;DHT22;62581;47.342;7.908;2023-03-19T15:46:11;15.20;99.90